createdAt,value
2019-01-28T00:03:20.623Z,97621.05
2019-01-28T00:05:49.645Z,97618.57
2019-01-28T00:08:18.652Z,97627.87
2019-01-28T00:10:47.644Z,97629.72
2019-01-28T00:13:16.674Z,97634.88
2019-01-28T00:15:45.658Z,97627.14
2019-01-28T00:18:14.646Z,97634.52
2019-01-28T00:20:43.648Z,97624.08
2019-01-28T00:23:12.656Z,97625.29
2019-01-28T00:25:41.672Z,97627.52
2019-01-28T00:28:10.742Z,97635.00
2019-01-28T00:30:39.711Z,97634.05
2019-01-28T00:33:08.736Z,97623.19
2019-01-28T00:35:37.742Z,97622.84
2019-01-28T00:38:06.743Z,97617.59
2019-01-28T00:40:35.749Z,97619.94
2019-01-28T00:43:04.743Z,97615.55
2019-01-28T00:45:33.746Z,97618.16
2019-01-28T00:48:02.772Z,97613.38
2019-01-28T00:50:31.757Z,97623.89
2019-01-28T00:53:00.773Z,97618.86
2019-01-28T00:55:29.757Z,97620.77
2019-01-28T00:57:58.776Z,97619.88
2019-01-28T01:00:27.759Z,97618.64
2019-01-28T01:02:56.765Z,97617.36
2019-01-28T01:05:25.784Z,97622.84
2019-01-28T01:07:54.795Z,97620.80
2019-01-28T01:10:23.834Z,97621.72
2019-01-28T01:12:52.838Z,97635.66
2019-01-28T01:15:21.844Z,97632.70
2019-01-28T01:17:50.858Z,97628.88
2019-01-28T01:20:19.820Z,97626.71
2019-01-28T01:22:48.911Z,97621.02
2019-01-28T01:25:17.904Z,97623.59
2019-01-28T01:27:46.880Z,97617.70
2019-01-28T01:30:17.079Z,97617.26
2019-01-28T01:32:46.070Z,97636.44
2019-01-28T01:35:15.071Z,97540.57
2019-01-28T01:37:44.066Z,97621.38
2019-01-28T01:40:15.049Z,97631.02
2019-01-28T01:42:44.067Z,97627.09
2019-01-28T01:45:14.887Z,97623.25
2019-01-28T01:47:43.889Z,97608.16
2019-01-28T01:50:12.910Z,97608.16
2019-01-28T01:52:41.928Z,97616.28
2019-01-28T01:55:12.310Z,97598.05
2019-01-28T01:57:41.305Z,97602.38
2019-01-28T02:00:15.491Z,97595.06
2019-01-28T02:02:44.583Z,97604.98
2019-01-28T02:05:13.581Z,97597.58
2019-01-28T02:07:42.612Z,97599.27
2019-01-28T02:10:13.526Z,97590.58
2019-01-28T02:12:42.724Z,97590.58
2019-01-28T02:15:14.159Z,97588.36
2019-01-28T02:17:43.166Z,97589.22
2019-01-28T02:20:15.776Z,97591.86
2019-01-28T02:22:45.152Z,97584.89
2019-01-28T02:25:14.618Z,97582.22
2019-01-28T02:27:44.426Z,97586.61
2019-01-28T02:30:15.484Z,97581.75
2019-01-28T02:32:44.794Z,97575.19
2019-01-28T02:35:13.874Z,97573.83
2019-01-28T02:37:42.939Z,97577.30
2019-01-28T02:40:16.590Z,97576.75
2019-01-28T02:42:45.780Z,97573.22
2019-01-28T02:45:15.324Z,97573.28
2019-01-28T02:47:44.326Z,97573.28
2019-01-28T02:50:15.323Z,97576.31
2019-01-28T02:52:44.439Z,97568.03
2019-01-28T02:55:13.538Z,97566.70
2019-01-28T02:57:42.605Z,97571.44
2019-01-28T03:00:52.765Z,97569.34
2019-01-28T03:03:21.792Z,97569.05
2019-01-28T03:05:50.865Z,97569.05
2019-01-28T03:08:19.896Z,97558.27
2019-01-28T03:10:48.873Z,97557.03
2019-01-28T03:13:17.873Z,97549.27
2019-01-28T03:15:46.851Z,97554.13
2019-01-28T03:18:15.863Z,97546.40
2019-01-28T03:20:44.862Z,97550.38
2019-01-28T03:23:13.953Z,97557.30
2019-01-28T03:25:42.921Z,97548.59
2019-01-28T03:28:12.001Z,97548.66
2019-01-28T03:30:41.001Z,97548.80
2019-01-28T03:33:10.042Z,97551.44
2019-01-28T03:35:39.004Z,97547.12
2019-01-28T03:38:08.006Z,97545.84
2019-01-28T03:40:36.996Z,97538.44
2019-01-28T03:43:06.003Z,97540.30
2019-01-28T03:45:35.021Z,97531.69
2019-01-28T03:48:04.024Z,97535.38
2019-01-28T03:50:33.119Z,97534.94
2019-01-28T03:53:02.225Z,97532.71
2019-01-28T03:55:31.251Z,97528.48
2019-01-28T03:58:00.242Z,97528.42
2019-01-28T04:00:30.573Z,97528.42
2019-01-28T04:02:59.548Z,97524.28
2019-01-28T04:05:28.559Z,97520.43
2019-01-28T04:07:57.558Z,97526.98
2019-01-28T04:10:29.601Z,97521.23
2019-01-28T04:12:58.649Z,97512.55
2019-01-28T04:15:27.629Z,97512.55
2019-01-28T04:17:56.693Z,97519.45
2019-01-28T04:20:26.898Z,97515.98
2019-01-28T04:22:55.865Z,97512.55
2019-01-28T04:25:24.880Z,97512.55
2019-01-28T04:27:53.873Z,97518.17
2019-01-28T04:30:23.952Z,97511.91
2019-01-28T04:32:52.942Z,97512.86
2019-01-28T04:35:21.954Z,97512.86
2019-01-28T04:37:53.217Z,97502.41
2019-01-28T04:40:22.204Z,97492.87
2019-01-28T04:42:51.278Z,97492.87
2019-01-28T04:45:20.344Z,97490.64
2019-01-28T04:47:49.361Z,97488.92
2019-01-28T04:50:19.395Z,97492.45
2019-01-28T04:52:48.404Z,97488.86
2019-01-28T04:55:17.499Z,97485.81
2019-01-28T04:57:46.462Z,97482.85
2019-01-28T05:00:34.630Z,97483.30
2019-01-28T05:03:03.643Z,97477.61
2019-01-28T05:05:32.652Z,97468.64
2019-01-28T05:08:01.639Z,97469.18
2019-01-28T05:10:30.694Z,97469.18
2019-01-28T05:12:59.671Z,97474.30
2019-01-28T05:15:28.703Z,97474.30
2019-01-28T05:17:57.700Z,97460.91
2019-01-28T05:20:26.735Z,97463.94
2019-01-28T05:22:55.729Z,97459.10
2019-01-28T05:25:24.707Z,97459.10
2019-01-28T05:27:53.878Z,97451.31
2019-01-28T05:30:24.101Z,97449.98
2019-01-28T05:32:53.138Z,97447.41
2019-01-28T05:35:22.282Z,97442.25
2019-01-28T05:37:51.426Z,97441.67
2019-01-28T05:40:22.121Z,97443.77
2019-01-28T05:42:51.100Z,97442.98
2019-01-28T05:45:20.291Z,97444.59
2019-01-28T05:47:49.299Z,97444.59
2019-01-28T05:50:18.461Z,97444.59
2019-01-28T05:52:47.528Z,97438.21
2019-01-28T05:55:16.600Z,97438.21
2019-01-28T05:57:45.608Z,97431.56
2019-01-28T06:00:39.002Z,97438.43
2019-01-28T06:03:07.996Z,97440.08
2019-01-28T06:05:40.143Z,97435.82
2019-01-28T06:08:09.196Z,97431.91
2019-01-28T06:10:38.216Z,97434.48
2019-01-28T06:13:07.209Z,97435.00
2019-01-28T06:15:36.180Z,97435.00
2019-01-28T06:18:05.235Z,97441.17
2019-01-28T06:20:34.227Z,97442.88
2019-01-28T06:23:03.261Z,97441.55
2019-01-28T06:25:32.230Z,97443.45
2019-01-28T06:28:01.314Z,97446.61
2019-01-28T06:30:31.233Z,97446.61
2019-01-28T06:33:00.251Z,97444.95
2019-01-28T06:35:29.247Z,97444.95
2019-01-28T06:37:58.229Z,97446.34
2019-01-28T06:40:32.236Z,97451.56
2019-01-28T06:43:01.209Z,97440.44
2019-01-28T06:45:30.239Z,97459.98
2019-01-28T06:47:59.211Z,97471.23
2019-01-28T06:50:30.568Z,97466.91
2019-01-28T06:52:59.564Z,97464.84
2019-01-28T06:55:28.538Z,97463.63
2019-01-28T06:57:57.578Z,97466.20
2019-01-28T07:00:31.370Z,97475.38
2019-01-28T07:03:00.426Z,97477.98
2019-01-28T07:05:29.444Z,97474.97
2019-01-28T07:07:58.436Z,97486.78
2019-01-28T07:10:27.415Z,97477.61
2019-01-28T07:12:56.423Z,97484.59
2019-01-28T07:15:25.642Z,97485.03
2019-01-28T07:17:55.368Z,97485.66
2019-01-28T07:20:27.738Z,97496.97
2019-01-28T07:22:56.728Z,97498.69
2019-01-28T07:25:25.952Z,97503.00
2019-01-28T07:27:55.011Z,97501.76
2019-01-28T07:30:26.969Z,97504.00
2019-01-28T07:32:55.993Z,97504.00
2019-01-28T07:35:25.070Z,97499.63
2019-01-28T07:37:54.123Z,97505.19
2019-01-28T07:40:23.145Z,97508.63
2019-01-28T07:42:52.141Z,97506.14
2019-01-28T07:45:24.247Z,97515.97
2019-01-28T07:47:53.241Z,97515.97
2019-01-28T07:50:22.285Z,97506.30
2019-01-28T07:52:51.260Z,97502.48
2019-01-28T07:55:20.281Z,97525.73
2019-01-28T07:57:49.364Z,97514.73
2019-01-28T08:00:20.820Z,97521.19
2019-01-28T08:02:50.172Z,97519.05
2019-01-28T08:05:19.276Z,97523.34
2019-01-28T08:07:48.280Z,97523.77
2019-01-28T08:10:17.565Z,97528.75
2019-01-28T08:12:46.610Z,97530.83
2019-01-28T08:15:17.294Z,97533.05
2019-01-28T08:17:46.408Z,97537.40
2019-01-28T08:20:16.910Z,97538.65
2019-01-28T08:22:45.957Z,97543.39
2019-01-28T08:25:16.178Z,97547.88
2019-01-28T08:27:45.229Z,97553.08
2019-01-28T08:30:20.392Z,97556.47
2019-01-28T08:32:49.461Z,97556.00
2019-01-28T08:35:18.507Z,97556.00
2019-01-28T08:37:47.521Z,97549.98
2019-01-28T08:40:16.577Z,97555.58
2019-01-28T08:42:45.566Z,97555.09
2019-01-28T08:45:14.579Z,97555.09
2019-01-28T08:47:43.562Z,97544.80
2019-01-28T08:50:14.947Z,97546.52
2019-01-28T08:52:43.924Z,97548.11
2019-01-28T08:55:15.206Z,97538.94
2019-01-28T08:57:44.302Z,97543.70
2019-01-28T09:00:16.766Z,97543.34
2019-01-28T09:02:45.781Z,97550.68
2019-01-28T09:05:14.884Z,97546.75
2019-01-28T09:07:43.898Z,97551.42
2019-01-28T09:10:16.132Z,97546.98
2019-01-28T09:12:45.222Z,97546.98
2019-01-28T09:15:15.926Z,97541.70
2019-01-28T09:17:44.960Z,97545.45
2019-01-28T09:20:16.423Z,97543.55
2019-01-28T09:22:45.398Z,97543.55
2019-01-28T09:25:14.628Z,97546.91
2019-01-28T09:27:43.637Z,97547.71
2019-01-28T09:30:27.310Z,97555.75
2019-01-28T09:32:56.337Z,97562.13
2019-01-28T09:35:25.317Z,97561.23
2019-01-28T09:37:54.358Z,97567.31
2019-01-28T09:40:24.737Z,97561.95
2019-01-28T09:42:53.721Z,97566.20
2019-01-28T09:45:33.893Z,97564.00
2019-01-28T09:48:07.425Z,97551.86
2019-01-28T09:50:36.449Z,97564.30
2019-01-28T09:53:05.466Z,97569.52
2019-01-28T09:55:34.463Z,97576.89
2019-01-28T09:58:03.482Z,97574.04
2019-01-28T10:00:34.899Z,97575.41
2019-01-28T10:03:05.492Z,97581.50
2019-01-28T10:05:34.477Z,97584.17
2019-01-28T10:08:03.504Z,97577.59
2019-01-28T10:10:32.508Z,97581.89
2019-01-28T10:13:01.548Z,97581.89
2019-01-28T10:15:32.590Z,97582.48
2019-01-28T10:18:04.918Z,97586.22
2019-01-28T10:20:36.253Z,97584.86
2019-01-28T10:23:06.256Z,97586.46
2019-01-28T10:25:35.400Z,97588.12
2019-01-28T10:28:04.524Z,97589.05
2019-01-28T10:30:35.384Z,97592.89
2019-01-28T10:33:04.442Z,97587.06
2019-01-28T10:35:33.451Z,97590.41
2019-01-28T10:38:02.495Z,97592.92
2019-01-28T10:40:32.811Z,97591.03
2019-01-28T10:43:01.879Z,97593.55
2019-01-28T10:45:30.927Z,97595.06
2019-01-28T10:48:00.923Z,97602.89
2019-01-28T10:50:30.780Z,97598.47
2019-01-28T10:52:59.772Z,97605.34
2019-01-28T10:55:28.765Z,97605.64
2019-01-28T10:57:57.857Z,97605.82
2019-01-28T11:00:29.293Z,97606.20
2019-01-28T11:02:58.385Z,97608.75
2019-01-28T11:05:27.378Z,97605.16
2019-01-28T11:07:56.442Z,97601.31
2019-01-28T11:10:25.706Z,97613.05
2019-01-28T11:12:54.658Z,97616.97
2019-01-28T11:15:25.576Z,97614.23
2019-01-28T11:17:54.679Z,97615.13
2019-01-28T11:20:23.800Z,97618.62
2019-01-28T11:22:52.861Z,97620.11
2019-01-28T11:25:24.091Z,97617.14
2019-01-28T11:27:53.255Z,97623.19
2019-01-28T11:30:52.907Z,97620.02
2019-01-28T11:33:21.995Z,97622.98
2019-01-28T11:35:50.994Z,97626.33
2019-01-28T11:38:20.652Z,97630.33
2019-01-28T11:40:49.827Z,97626.66
2019-01-28T11:43:18.854Z,97629.55
2019-01-28T11:45:54.114Z,97625.58
2019-01-28T11:48:23.256Z,97629.87
2019-01-28T11:50:56.159Z,97629.30
2019-01-28T11:53:23.067Z,97634.55
2019-01-28T11:55:52.093Z,97636.72
2019-01-28T11:58:21.146Z,97639.23
2019-01-28T12:00:56.757Z,97640.89
2019-01-28T12:03:25.814Z,97643.47
2019-01-28T12:05:54.897Z,97637.83
2019-01-28T12:08:23.888Z,97643.47
2019-01-28T12:10:52.918Z,97649.04
2019-01-28T12:13:21.931Z,97650.73
2019-01-28T12:15:50.919Z,97656.52
2019-01-28T12:18:19.929Z,97657.41
2019-01-28T12:20:53.774Z,97660.85
2019-01-28T12:23:19.674Z,97672.06
2019-01-28T12:25:48.777Z,97672.92
2019-01-28T12:28:17.759Z,97672.44
2019-01-28T12:30:46.774Z,97681.48
2019-01-28T12:33:15.791Z,97681.87
2019-01-28T12:35:44.770Z,97686.16
2019-01-28T12:38:13.784Z,97698.20
2019-01-28T12:40:42.983Z,97695.30
2019-01-28T12:43:11.966Z,97703.61
2019-01-28T12:45:40.971Z,97706.13
2019-01-28T12:48:09.992Z,97709.95
2019-01-28T12:50:39.025Z,97714.31
2019-01-28T12:53:08.110Z,97715.66
2019-01-28T12:55:37.099Z,97720.88
2019-01-28T12:58:06.973Z,97725.24
2019-01-28T13:00:55.457Z,97728.89
2019-01-28T13:03:24.572Z,97729.78
2019-01-28T13:05:53.763Z,97735.88
2019-01-28T13:08:22.857Z,97742.42
2019-01-28T13:10:52.333Z,97745.87
2019-01-28T13:13:21.374Z,97751.13
2019-01-28T13:15:50.482Z,97751.98
2019-01-28T13:18:19.495Z,97758.06
2019-01-28T13:20:48.507Z,97759.08
2019-01-28T13:23:17.507Z,97767.37
2019-01-28T13:25:46.531Z,97771.74
2019-01-28T13:28:15.607Z,97780.91
2019-01-28T13:30:44.726Z,97783.58
2019-01-28T13:33:15.801Z,97789.27
2019-01-28T13:35:44.808Z,97801.07
2019-01-28T13:38:13.837Z,97801.55
2019-01-28T13:40:42.818Z,97803.31
2019-01-28T13:43:11.875Z,97812.90
2019-01-28T13:45:40.912Z,97822.89
2019-01-28T13:48:12.288Z,97826.28
2019-01-28T13:50:41.340Z,97832.92
2019-01-28T13:53:10.332Z,97840.67
2019-01-28T13:55:39.325Z,97852.44
2019-01-28T13:58:08.526Z,97855.91
2019-01-28T14:00:37.573Z,97859.55
2019-01-28T14:03:06.661Z,97863.48
2019-01-28T14:05:36.120Z,97870.90
2019-01-28T14:08:05.179Z,97870.55
2019-01-28T14:10:34.253Z,97878.85
2019-01-28T14:13:03.427Z,97885.40
2019-01-28T14:15:36.066Z,97885.40
2019-01-28T14:18:05.574Z,97893.23
2019-01-28T14:20:34.873Z,97901.95
2019-01-28T14:23:03.937Z,97916.77
2019-01-28T14:25:33.124Z,97920.21
2019-01-28T14:28:05.566Z,97928.04
2019-01-28T14:30:38.657Z,97936.75
2019-01-28T14:33:07.339Z,97935.91
2019-01-28T14:35:39.261Z,97942.44
2019-01-28T14:38:09.556Z,97950.24
2019-01-28T14:40:39.125Z,97955.06
2019-01-28T14:43:08.409Z,97957.20
2019-01-28T14:45:37.647Z,97964.17
2019-01-28T14:48:08.260Z,97962.45
2019-01-28T14:50:37.371Z,97964.64
2019-01-28T14:53:06.478Z,97975.92
2019-01-28T14:55:35.657Z,97973.35
2019-01-28T14:58:05.348Z,97981.16
2019-01-28T15:00:36.510Z,97989.01
2019-01-28T15:03:05.665Z,97989.95
2019-01-28T15:05:34.784Z,97998.58
2019-01-28T15:08:03.995Z,97995.95
2019-01-28T15:10:33.107Z,97999.84
2019-01-28T15:13:02.184Z,98001.59
2019-01-28T15:15:33.358Z,98005.06
2019-01-28T15:18:02.425Z,98010.70
2019-01-28T15:20:31.499Z,98015.50
2019-01-28T15:23:01.070Z,98015.92
2019-01-28T15:25:30.221Z,98015.02
2019-01-28T15:27:59.331Z,98016.33
2019-01-28T15:30:29.213Z,98025.86
2019-01-28T15:32:58.682Z,98034.05
2019-01-28T15:35:27.862Z,98040.13
2019-01-28T15:37:56.906Z,98031.86
2019-01-28T15:40:28.381Z,98042.28
2019-01-28T15:42:57.479Z,98050.03
2019-01-28T15:45:28.838Z,98055.70
2019-01-28T15:47:58.850Z,98059.66
2019-01-28T15:50:27.957Z,98065.23
2019-01-28T15:52:56.989Z,98072.18
2019-01-28T15:55:28.796Z,98080.39
2019-01-28T15:57:57.865Z,98076.94
2019-01-28T16:00:28.934Z,98085.15
2019-01-28T16:02:58.093Z,98086.91
2019-01-28T16:05:27.160Z,98096.08
2019-01-28T16:07:56.222Z,98099.23
2019-01-28T16:10:25.324Z,98104.45
2019-01-28T16:12:54.376Z,97993.33
2019-01-28T16:15:43.814Z,98129.72
2019-01-28T16:18:13.173Z,98134.05
2019-01-28T16:20:42.359Z,98137.62
2019-01-28T16:23:11.407Z,98141.13
2019-01-28T16:25:40.448Z,98146.40
2019-01-28T16:28:09.494Z,98155.56
2019-01-28T16:30:59.388Z,98159.97
2019-01-28T16:33:50.388Z,98163.48
2019-01-28T16:36:19.461Z,98173.55
2019-01-28T16:38:48.756Z,98179.70
2019-01-28T16:41:17.791Z,98188.86
2019-01-28T16:43:47.835Z,98202.27
2019-01-28T16:46:16.922Z,98209.34
2019-01-28T16:48:46.045Z,98219.80
2019-01-28T16:51:15.450Z,98224.63
2019-01-28T16:53:47.573Z,98230.32
2019-01-28T16:56:16.622Z,98229.05
2019-01-28T16:58:45.729Z,98231.32
2019-01-28T17:01:14.847Z,98241.73
2019-01-28T17:03:43.841Z,98257.42
2019-01-28T17:06:12.945Z,98262.22
2019-01-28T17:08:42.121Z,98279.73
2019-01-28T17:11:11.242Z,98279.73
2019-01-28T17:13:40.264Z,98275.44
2019-01-28T17:16:09.393Z,98290.65
2019-01-28T17:18:38.588Z,98307.98
2019-01-28T17:21:07.712Z,98307.98
2019-01-28T17:23:36.750Z,98308.45
2019-01-28T17:26:08.240Z,98314.09
2019-01-28T17:28:37.331Z,98306.70
2019-01-28T17:31:06.460Z,98321.07
2019-01-28T17:33:35.523Z,98335.41
2019-01-28T17:36:06.676Z,98346.29
2019-01-28T17:38:35.788Z,98348.89
2019-01-28T17:41:04.880Z,98355.89
2019-01-28T17:43:34.096Z,98369.36
2019-01-28T17:46:03.197Z,98371.03
2019-01-28T17:48:32.354Z,98379.36
2019-01-28T17:51:01.390Z,98390.64
2019-01-28T17:53:30.505Z,98388.92
2019-01-28T17:55:59.550Z,98390.25
2019-01-28T17:58:31.835Z,98398.47
2019-01-28T18:01:00.919Z,98399.78
2019-01-28T18:03:30.023Z,98413.28
2019-01-28T18:05:59.215Z,98415.45
2019-01-28T18:08:28.764Z,98415.87
2019-01-28T18:10:58.006Z,98426.79
2019-01-28T18:13:46.081Z,98426.79
2019-01-28T18:16:15.350Z,98428.05
2019-01-28T18:18:44.417Z,98436.77
2019-01-28T18:21:21.092Z,98439.34
2019-01-28T18:23:52.309Z,98451.06
2019-01-28T18:26:33.019Z,98451.54
2019-01-28T18:29:02.164Z,98458.45
2019-01-28T18:31:31.625Z,98452.34
2019-01-28T18:34:31.126Z,98468.42
2019-01-28T18:37:00.187Z,98476.68
2019-01-28T18:39:29.378Z,98482.77
2019-01-28T18:41:58.392Z,98492.75
2019-01-28T18:44:27.470Z,98495.80
2019-01-28T18:46:56.563Z,98500.17
2019-01-28T18:49:25.861Z,98500.17
2019-01-28T18:51:55.471Z,98510.99
2019-01-28T18:54:26.001Z,98524.45
2019-01-28T18:56:55.823Z,98527.97
2019-01-28T18:59:24.969Z,98526.67
2019-01-28T19:01:54.369Z,98542.73
2019-01-28T19:04:25.079Z,98542.73
2019-01-28T19:07:13.206Z,98539.69
2019-01-28T19:09:57.631Z,98551.81
2019-01-28T19:12:49.221Z,98554.89
2019-01-28T19:15:43.222Z,98563.14
2019-01-28T19:18:26.085Z,98571.82
2019-01-28T19:21:07.468Z,98574.00
2019-01-28T19:23:30.894Z,98585.28
2019-01-28T19:26:00.004Z,98585.28
2019-01-28T19:28:29.155Z,98585.72
2019-01-28T19:30:59.302Z,98597.01
2019-01-28T19:33:28.444Z,98597.87
2019-01-28T19:35:58.194Z,98615.23
2019-01-28T19:38:27.930Z,98615.23
2019-01-28T19:40:57.419Z,98623.48
2019-01-28T19:43:26.548Z,98630.88
2019-01-28T19:45:55.860Z,98635.64
2019-01-28T19:48:24.956Z,98639.98
2019-01-28T19:50:54.906Z,98633.47
2019-01-28T19:53:24.170Z,98645.66
2019-01-28T19:55:53.375Z,98655.62
2019-01-28T19:58:22.524Z,98646.94
2019-01-28T20:00:51.758Z,98651.28
2019-01-28T20:03:20.903Z,98659.09
2019-01-28T20:05:50.197Z,98661.70
2019-01-28T20:08:19.699Z,98668.20
2019-01-28T20:10:49.045Z,98672.55
2019-01-28T20:13:18.335Z,98676.03
2019-01-28T20:15:48.091Z,98686.44
2019-01-28T20:18:17.124Z,98687.31
2019-01-28T20:20:46.198Z,98690.79
2019-01-28T20:23:15.459Z,98693.37
2019-01-28T20:25:44.551Z,98701.19
2019-01-28T20:28:13.726Z,98699.88
2019-01-28T20:30:42.794Z,98703.78
2019-01-28T20:33:11.989Z,98703.80
2019-01-28T20:35:41.207Z,98700.34
2019-01-28T20:38:15.561Z,98715.97
2019-01-28T20:40:41.195Z,98715.97
2019-01-28T20:43:10.600Z,98716.41
2019-01-28T20:45:45.037Z,98725.52
2019-01-28T20:48:10.643Z,98729.43
2019-01-28T20:50:39.752Z,98739.41
2019-01-28T20:53:08.934Z,98735.92
2019-01-28T20:55:37.992Z,98735.92
2019-01-28T20:58:07.109Z,98747.21
2019-01-28T21:00:36.329Z,98746.77
2019-01-28T21:03:05.418Z,98755.04
2019-01-28T21:05:34.531Z,98759.79
2019-01-28T21:08:03.799Z,98760.65
2019-01-28T21:10:32.892Z,98772.81
2019-01-28T21:13:01.977Z,98784.09
2019-01-28T21:15:31.057Z,98775.39
2019-01-28T21:18:00.153Z,98784.53
2019-01-28T21:20:29.252Z,98782.77
2019-01-28T21:22:58.452Z,98791.02
2019-01-28T21:25:27.611Z,98791.02
2019-01-28T21:27:56.788Z,98800.56
2019-01-28T21:30:31.195Z,98802.27
2019-01-28T21:33:00.286Z,98812.27
2019-01-28T21:35:57.628Z,98811.37
2019-01-28T21:38:51.705Z,98812.23
2019-01-28T21:41:20.851Z,98822.64
2019-01-28T21:43:49.922Z,98826.55
2019-01-28T21:46:19.680Z,98830.45
2019-01-28T21:48:49.158Z,98829.59
2019-01-28T21:51:18.214Z,98836.09
2019-01-28T21:53:47.365Z,98842.16
2019-01-28T21:56:16.371Z,98844.77
2019-01-28T21:58:45.512Z,98850.84
2019-01-28T22:01:14.624Z,98853.42
2019-01-28T22:03:44.171Z,98853.42
2019-01-28T22:06:13.286Z,98853.45
2019-01-28T22:08:42.314Z,98866.02
2019-01-28T22:11:12.931Z,98859.94
2019-01-28T22:13:42.175Z,98859.95
2019-01-28T22:16:11.261Z,98856.91
2019-01-28T22:18:40.437Z,98868.16
2019-01-28T22:21:13.082Z,98871.21
2019-01-28T22:23:42.741Z,98866.00
2019-01-28T22:26:11.797Z,98879.47
2019-01-28T22:28:40.820Z,98881.22
2019-01-28T22:31:09.882Z,98887.31
2019-01-28T22:33:38.894Z,98889.08
2019-01-28T22:36:07.971Z,98893.86
2019-01-28T22:38:37.019Z,98895.11
2019-01-28T22:41:06.000Z,98900.31
2019-01-28T22:43:35.030Z,98904.63
2019-01-28T22:46:04.080Z,98902.89
2019-01-28T22:48:33.094Z,98910.27
2019-01-28T22:51:02.195Z,98912.42
2019-01-28T22:53:31.237Z,98915.47
2019-01-28T22:56:00.316Z,98911.52
2019-01-28T22:58:29.433Z,98912.34
2019-01-28T23:01:18.667Z,98912.34
2019-01-28T23:03:47.716Z,98915.83
2019-01-28T23:06:16.763Z,98919.77
2019-01-28T23:08:46.863Z,98916.73
2019-01-28T23:11:15.951Z,98921.96
2019-01-28T23:13:44.981Z,98921.52
2019-01-28T23:16:16.321Z,98924.55
2019-01-28T23:18:45.365Z,98928.91
2019-01-28T23:21:14.435Z,98925.02
2019-01-28T23:23:43.487Z,98933.22
2019-01-28T23:26:12.487Z,98939.70
2019-01-28T23:28:41.533Z,98934.95
2019-01-28T23:31:10.559Z,98941.00
2019-01-28T23:33:39.615Z,98948.77
2019-01-28T23:36:08.694Z,98948.77
2019-01-28T23:38:37.766Z,98944.88
2019-01-28T23:41:06.812Z,98952.23
2019-01-28T23:43:35.906Z,98960.07
2019-01-28T23:46:05.152Z,98960.07
2019-01-28T23:48:34.238Z,98960.93
2019-01-28T23:51:03.371Z,98970.89
2019-01-28T23:53:32.452Z,98973.95
2019-01-28T23:56:01.550Z,98973.95
2019-01-28T23:58:30.617Z,98980.89
